sensor_id;sensor_type;location;lat;lon;timestamp;pressure;altitude;pressure_sealevel;temperature;humidity
48888;BME280;42598;53.802;-1.632;2023-02-12T00:01:40;102804.35;;;10.94;52.32
48888;BME280;42598;53.802;-1.632;2023-02-12T00:04:07;102806.08;;;11.28;52.15
48888;BME280;42598;53.802;-1.632;2023-02-12T00:06:34;102795.85;;;11.65;51.46
48888;BME280;42598;53.802;-1.632;2023-02-12T00:09:01;102793.59;;;11.27;52.25
48888;BME280;42598;53.802;-1.632;2023-02-12T00:11:29;102807.24;;;9.94;53.59
48888;BME280;42598;53.802;-1.632;2023-02-12T00:13:57;102809.56;;;10.58;52.28
48888;BME280;42598;53.802;-1.632;2023-02-12T00:16:27;102797.74;;;11.32;52.51
48888;BME280;42598;53.802;-1.632;2023-02-12T00:18:56;102795.09;;;11.12;51.83
48888;BME280;42598;53.802;-1.632;2023-02-12T00:21:24;102797.66;;;10.61;53.49
48888;BME280;42598;53.802;-1.632;2023-02-12T00:23:51;102796.12;;;11.32;52.45
48888;BME280;42598;53.802;-1.632;2023-02-12T00:26:20;102802.06;;;10.62;53.37
48888;BME280;42598;53.802;-1.632;2023-02-12T00:28:48;102793.55;;;11.62;51.25
48888;BME280;42598;53.802;-1.632;2023-02-12T00:31:18;102788.85;;;12.02;50.86
48888;BME280;42598;53.802;-1.632;2023-02-12T00:33:45;102800.64;;;9.78;54.26
48888;BME280;42598;53.802;-1.632;2023-02-12T00:36:15;102797.71;;;10.53;54.31
48888;BME280;42598;53.802;-1.632;2023-02-12T00:38:42;102790.37;;;11.45;51.77
48888;BME280;42598;53.802;-1.632;2023-02-12T00:41:10;102789.53;;;10.80;52.91
48888;BME280;42598;53.802;-1.632;2023-02-12T00:43:37;102790.04;;;11.49;51.75
48888;BME280;42598;53.802;-1.632;2023-02-12T00:46:05;102784.20;;;12.11;50.46
48888;BME280;42598;53.802;-1.632;2023-02-12T00:48:34;102780.87;;;11.71;51.05
48888;BME280;42598;53.802;-1.632;2023-02-12T00:51:01;102783.03;;;10.95;52.96
48888;BME280;42598;53.802;-1.632;2023-02-12T00:53:29;102791.04;;;10.66;53.86
48888;BME280;42598;53.802;-1.632;2023-02-12T00:55:56;102783.56;;;12.05;51.32
48888;BME280;42598;53.802;-1.632;2023-02-12T00:58:24;102777.24;;;10.73;53.05
48888;BME280;42598;53.802;-1.632;2023-02-12T01:00:52;102775.12;;;11.70;51.87
48888;BME280;42598;53.802;-1.632;2023-02-12T01:03:20;102776.23;;;10.97;52.71
48888;BME280;42598;53.802;-1.632;2023-02-12T01:05:47;102779.62;;;10.38;53.70
48888;BME280;42598;53.802;-1.632;2023-02-12T01:08:16;102777.28;;;11.38;52.02
48888;BME280;42598;53.802;-1.632;2023-02-12T01:10:52;102776.69;;;10.91;53.18
48888;BME280;42598;53.802;-1.632;2023-02-12T01:13:19;102777.36;;;10.67;52.70
48888;BME280;42598;53.802;-1.632;2023-02-12T01:15:46;102773.41;;;11.28;52.31
48888;BME280;42598;53.802;-1.632;2023-02-12T01:18:13;102771.97;;;11.03;52.69
48888;BME280;42598;53.802;-1.632;2023-02-12T01:20:40;102775.38;;;9.96;54.20
48888;BME280;42598;53.802;-1.632;2023-02-12T01:23:07;102765.79;;;10.92;54.18
48888;BME280;42598;53.802;-1.632;2023-02-12T01:25:34;102766.80;;;10.36;54.41
48888;BME280;42598;53.802;-1.632;2023-02-12T01:28:03;102762.14;;;11.34;52.68
48888;BME280;42598;53.802;-1.632;2023-02-12T01:30:31;102770.75;;;11.04;53.72
48888;BME280;42598;53.802;-1.632;2023-02-12T01:32:58;102771.38;;;9.42;55.80
48888;BME280;42598;53.802;-1.632;2023-02-12T01:35:25;102769.16;;;10.16;54.96
48888;BME280;42598;53.802;-1.632;2023-02-12T01:37:52;102759.96;;;10.68;53.65
48888;BME280;42598;53.802;-1.632;2023-02-12T01:40:20;102771.46;;;10.69;54.13
48888;BME280;42598;53.802;-1.632;2023-02-12T01:42:47;102773.10;;;10.53;53.13
48888;BME280;42598;53.802;-1.632;2023-02-12T01:45:50;102764.78;;;10.62;53.25
48888;BME280;42598;53.802;-1.632;2023-02-12T01:48:20;102762.56;;;11.06;52.67
48888;BME280;42598;53.802;-1.632;2023-02-12T01:50:50;102769.74;;;10.43;54.13
48888;BME280;42598;53.802;-1.632;2023-02-12T01:53:21;102767.26;;;10.93;53.53
48888;BME280;42598;53.802;-1.632;2023-02-12T01:55:53;102758.99;;;10.72;52.97
48888;BME280;42598;53.802;-1.632;2023-02-12T01:58:24;102759.10;;;10.75;52.97
48888;BME280;42598;53.802;-1.632;2023-02-12T02:00:52;102762.15;;;11.15;52.44
48888;BME280;42598;53.802;-1.632;2023-02-12T02:03:20;102765.59;;;10.92;52.13
48888;BME280;42598;53.802;-1.632;2023-02-12T02:05:53;102765.13;;;10.87;52.44
48888;BME280;42598;53.802;-1.632;2023-02-12T02:08:22;102763.31;;;11.38;52.10
48888;BME280;42598;53.802;-1.632;2023-02-12T02:10:50;102771.50;;;10.31;53.11
48888;BME280;42598;53.802;-1.632;2023-02-12T02:13:18;102772.29;;;10.43;53.45
48888;BME280;42598;53.802;-1.632;2023-02-12T02:15:48;102776.84;;;10.07;54.66
48888;BME280;42598;53.802;-1.632;2023-02-12T02:18:22;102770.48;;;10.83;53.20
48888;BME280;42598;53.802;-1.632;2023-02-12T02:21:12;102773.82;;;10.90;54.37
48888;BME280;42598;53.802;-1.632;2023-02-12T02:26:20;102772.10;;;11.51;52.51
48888;BME280;42598;53.802;-1.632;2023-02-12T02:29:01;102783.37;;;10.08;49.76
48888;BME280;42598;53.802;-1.632;2023-02-12T02:31:37;102781.62;;;10.74;49.94
48888;BME280;42598;53.802;-1.632;2023-02-12T02:34:10;102775.61;;;11.14;50.21
48888;BME280;42598;53.802;-1.632;2023-02-12T02:36:46;102775.35;;;11.17;50.94
48888;BME280;42598;53.802;-1.632;2023-02-12T02:39:23;102778.12;;;10.82;51.32
48888;BME280;42598;53.802;-1.632;2023-02-12T02:41:56;102775.30;;;10.88;50.61
48888;BME280;42598;53.802;-1.632;2023-02-12T02:44:31;102773.94;;;11.66;49.93
48888;BME280;42598;53.802;-1.632;2023-02-12T02:47:03;102779.02;;;9.93;52.52
48888;BME280;42598;53.802;-1.632;2023-02-12T02:49:38;102777.08;;;10.18;52.35
48888;BME280;42598;53.802;-1.632;2023-02-12T02:52:08;102774.08;;;10.60;52.60
48888;BME280;42598;53.802;-1.632;2023-02-12T02:54:38;102769.88;;;11.09;50.94
48888;BME280;42598;53.802;-1.632;2023-02-12T02:57:13;102778.53;;;10.47;52.63
48888;BME280;42598;53.802;-1.632;2023-02-12T02:59:45;102780.44;;;10.13;53.75
48888;BME280;42598;53.802;-1.632;2023-02-12T03:02:18;102773.14;;;11.19;51.87
48888;BME280;42598;53.802;-1.632;2023-02-12T03:04:48;102778.78;;;10.84;51.17
48888;BME280;42598;53.802;-1.632;2023-02-12T03:07:20;102779.61;;;10.22;52.54
48888;BME280;42598;53.802;-1.632;2023-02-12T03:09:52;102769.97;;;10.92;49.66
48888;BME280;42598;53.802;-1.632;2023-02-12T03:12:27;102766.56;;;11.06;48.71
48888;BME280;42598;53.802;-1.632;2023-02-12T03:15:00;102764.74;;;11.25;48.18
48888;BME280;42598;53.802;-1.632;2023-02-12T03:17:33;102760.02;;;9.34;49.75
48888;BME280;42598;53.802;-1.632;2023-02-12T03:20:04;102757.59;;;9.03;50.05
48888;BME280;42598;53.802;-1.632;2023-02-12T03:22:35;102768.08;;;10.88;48.13
48888;BME280;42598;53.802;-1.632;2023-02-12T03:25:10;102766.06;;;11.05;48.24
48888;BME280;42598;53.802;-1.632;2023-02-12T03:27:40;102764.09;;;10.22;48.79
48888;BME280;42598;53.802;-1.632;2023-02-12T03:30:10;102768.97;;;10.88;48.13
48888;BME280;42598;53.802;-1.632;2023-02-12T03:32:47;102772.47;;;9.52;48.75
48888;BME280;42598;53.802;-1.632;2023-02-12T03:35:21;102757.18;;;10.97;47.29
48888;BME280;42598;53.802;-1.632;2023-02-12T03:37:55;102755.48;;;10.68;46.68
48888;BME280;42598;53.802;-1.632;2023-02-12T03:40:28;102765.58;;;10.68;47.35
48888;BME280;42598;53.802;-1.632;2023-02-12T03:43:03;102765.44;;;9.04;48.81
48888;BME280;42598;53.802;-1.632;2023-02-12T03:45:39;102772.02;;;10.50;47.25
48888;BME280;42598;53.802;-1.632;2023-02-12T03:48:12;102770.04;;;10.68;47.01
48888;BME280;42598;53.802;-1.632;2023-02-12T03:50:47;102771.07;;;10.21;48.51
48888;BME280;42598;53.802;-1.632;2023-02-12T03:53:17;102764.58;;;11.20;46.55
48888;BME280;42598;53.802;-1.632;2023-02-12T03:55:47;102760.80;;;11.17;46.26
48888;BME280;42598;53.802;-1.632;2023-02-12T03:58:19;102764.48;;;10.85;46.53
48888;BME280;42598;53.802;-1.632;2023-02-12T04:00:49;102775.17;;;10.29;47.32
48888;BME280;42598;53.802;-1.632;2023-02-12T04:03:17;102771.06;;;10.89;46.20
48888;BME280;42598;53.802;-1.632;2023-02-12T04:05:44;102772.88;;;10.44;46.13
48888;BME280;42598;53.802;-1.632;2023-02-12T04:08:12;102776.08;;;10.90;46.47
48888;BME280;42598;53.802;-1.632;2023-02-12T04:10:50;102772.65;;;10.39;46.39
48888;BME280;42598;53.802;-1.632;2023-02-12T04:13:27;102778.64;;;10.21;46.40
48888;BME280;42598;53.802;-1.632;2023-02-12T04:16:06;102778.99;;;9.91;47.34
48888;BME280;42598;53.802;-1.632;2023-02-12T04:18:42;102778.38;;;9.78;46.89
48888;BME280;42598;53.802;-1.632;2023-02-12T04:21:16;102782.65;;;10.11;47.03
48888;BME280;42598;53.802;-1.632;2023-02-12T04:23:55;102786.78;;;10.12;46.29
48888;BME280;42598;53.802;-1.632;2023-02-12T04:26:34;102781.16;;;10.58;46.35
48888;BME280;42598;53.802;-1.632;2023-02-12T04:29:12;102787.62;;;10.15;46.58
48888;BME280;42598;53.802;-1.632;2023-02-12T04:31:46;102786.17;;;10.91;46.13
48888;BME280;42598;53.802;-1.632;2023-02-12T04:34:19;102778.82;;;10.89;45.66
48888;BME280;42598;53.802;-1.632;2023-02-12T04:36:55;102777.32;;;10.89;45.71
48888;BME280;42598;53.802;-1.632;2023-02-12T04:39:25;102783.44;;;11.61;44.75
48888;BME280;42598;53.802;-1.632;2023-02-12T04:41:53;102781.93;;;11.39;44.97
48888;BME280;42598;53.802;-1.632;2023-02-12T04:44:25;102776.66;;;10.80;45.87
48888;BME280;42598;53.802;-1.632;2023-02-12T04:46:53;102784.69;;;10.19;46.47
48888;BME280;42598;53.802;-1.632;2023-02-12T04:49:21;102785.58;;;10.38;47.62
48888;BME280;42598;53.802;-1.632;2023-02-12T04:51:49;102774.80;;;11.03;46.87
48888;BME280;42598;53.802;-1.632;2023-02-12T04:54:18;102784.73;;;10.21;47.45
48888;BME280;42598;53.802;-1.632;2023-02-12T04:56:46;102782.68;;;10.90;47.56
48888;BME280;42598;53.802;-1.632;2023-02-12T04:59:14;102784.07;;;10.38;48.67
48888;BME280;42598;53.802;-1.632;2023-02-12T05:01:42;102785.24;;;9.98;49.00
48888;BME280;42598;53.802;-1.632;2023-02-12T05:04:11;102786.10;;;10.84;48.41
48888;BME280;42598;53.802;-1.632;2023-02-12T05:06:39;102788.56;;;10.36;49.25
48888;BME280;42598;53.802;-1.632;2023-02-12T05:09:08;102786.67;;;10.63;48.36
48888;BME280;42598;53.802;-1.632;2023-02-12T05:11:35;102783.76;;;9.46;49.80
48888;BME280;42598;53.802;-1.632;2023-02-12T05:14:02;102782.19;;;9.73;50.75
48888;BME280;42598;53.802;-1.632;2023-02-12T05:16:29;102786.20;;;9.35;50.59
48888;BME280;42598;53.802;-1.632;2023-02-12T05:18:56;102787.73;;;10.47;47.65
48888;BME280;42598;53.802;-1.632;2023-02-12T05:21:23;102783.44;;;10.56;47.36
48888;BME280;42598;53.802;-1.632;2023-02-12T05:23:50;102779.40;;;10.99;46.71
48888;BME280;42598;53.802;-1.632;2023-02-12T05:26:19;102780.38;;;11.02;46.81
48888;BME280;42598;53.802;-1.632;2023-02-12T05:28:46;102783.63;;;10.18;48.45
48888;BME280;42598;53.802;-1.632;2023-02-12T05:31:16;102783.74;;;9.28;51.24
48888;BME280;42598;53.802;-1.632;2023-02-12T05:33:45;102790.34;;;10.59;49.11
48888;BME280;42598;53.802;-1.632;2023-02-12T05:36:13;102786.32;;;8.80;51.77
48888;BME280;42598;53.802;-1.632;2023-02-12T05:38:41;102778.20;;;9.74;50.44
48888;BME280;42598;53.802;-1.632;2023-02-12T05:41:11;102778.45;;;9.79;50.51
48888;BME280;42598;53.802;-1.632;2023-02-12T05:43:39;102786.62;;;10.34;48.84
48888;BME280;42598;53.802;-1.632;2023-02-12T05:46:07;102780.20;;;11.25;47.56
48888;BME280;42598;53.802;-1.632;2023-02-12T05:48:35;102779.98;;;10.65;48.41
48888;BME280;42598;53.802;-1.632;2023-02-12T05:51:05;102780.69;;;10.79;47.31
48888;BME280;42598;53.802;-1.632;2023-02-12T05:53:33;102773.71;;;10.62;47.36
48888;BME280;42598;53.802;-1.632;2023-02-12T05:56:18;102777.20;;;11.32;46.58
48888;BME280;42598;53.802;-1.632;2023-02-12T05:58:48;102781.65;;;10.63;48.78
48888;BME280;42598;53.802;-1.632;2023-02-12T06:01:19;102776.49;;;8.49;53.22
48888;BME280;42598;53.802;-1.632;2023-02-12T06:03:47;102777.70;;;8.50;54.86
48888;BME280;42598;53.802;-1.632;2023-02-12T06:06:14;102779.45;;;10.05;51.82
48888;BME280;42598;53.802;-1.632;2023-02-12T06:08:42;102782.88;;;10.30;50.36
48888;BME280;42598;53.802;-1.632;2023-02-12T06:11:12;102783.36;;;9.88;50.81
48888;BME280;42598;53.802;-1.632;2023-02-12T06:13:40;102779.38;;;9.90;51.44
48888;BME280;42598;53.802;-1.632;2023-02-12T06:16:16;102777.63;;;10.78;49.88
48888;BME280;42598;53.802;-1.632;2023-02-12T06:18:43;102777.61;;;10.18;50.55
48888;BME280;42598;53.802;-1.632;2023-02-12T06:21:10;102772.60;;;10.21;51.10
48888;BME280;42598;53.802;-1.632;2023-02-12T06:23:38;102776.15;;;9.67;51.15
48888;BME280;42598;53.802;-1.632;2023-02-12T06:26:05;102773.07;;;9.22;52.99
48888;BME280;42598;53.802;-1.632;2023-02-12T06:28:32;102774.08;;;10.94;49.77
48888;BME280;42598;53.802;-1.632;2023-02-12T06:30:59;102780.47;;;9.20;52.67
48888;BME280;42598;53.802;-1.632;2023-02-12T06:33:27;102774.87;;;9.63;52.48
48888;BME280;42598;53.802;-1.632;2023-02-12T06:35:53;102777.89;;;10.10;51.70
48888;BME280;42598;53.802;-1.632;2023-02-12T06:38:20;102777.80;;;10.11;51.72
48888;BME280;42598;53.802;-1.632;2023-02-12T06:40:48;102772.06;;;10.46;50.96
48888;BME280;42598;53.802;-1.632;2023-02-12T06:43:15;102773.93;;;9.62;51.66
48888;BME280;42598;53.802;-1.632;2023-02-12T06:45:41;102773.52;;;8.49;54.54
48888;BME280;42598;53.802;-1.632;2023-02-12T06:48:08;102771.16;;;9.02;52.12
48888;BME280;42598;53.802;-1.632;2023-02-12T06:50:36;102778.26;;;10.26;51.02
48888;BME280;42598;53.802;-1.632;2023-02-12T06:53:03;102777.34;;;9.35;52.16
48888;BME280;42598;53.802;-1.632;2023-02-12T06:55:30;102773.87;;;9.81;51.69
48888;BME280;42598;53.802;-1.632;2023-02-12T06:57:57;102775.01;;;10.54;50.38
48888;BME280;42598;53.802;-1.632;2023-02-12T07:00:24;102776.81;;;10.51;50.42
48888;BME280;42598;53.802;-1.632;2023-02-12T07:02:52;102773.41;;;9.89;52.19
48888;BME280;42598;53.802;-1.632;2023-02-12T07:05:20;102779.50;;;10.25;51.13
48888;BME280;42598;53.802;-1.632;2023-02-12T07:07:48;102781.86;;;10.03;51.27
48888;BME280;42598;53.802;-1.632;2023-02-12T07:10:15;102785.24;;;9.75;52.06
48888;BME280;42598;53.802;-1.632;2023-02-12T07:12:43;102787.99;;;9.97;51.64
48888;BME280;42598;53.802;-1.632;2023-02-12T07:15:10;102788.81;;;10.25;51.61
48888;BME280;42598;53.802;-1.632;2023-02-12T07:17:36;102790.98;;;10.03;51.38
48888;BME280;42598;53.802;-1.632;2023-02-12T07:20:04;102790.79;;;9.28;52.08
48888;BME280;42598;53.802;-1.632;2023-02-12T07:22:35;102788.43;;;9.45;51.37
48888;BME280;42598;53.802;-1.632;2023-02-12T07:25:02;102789.07;;;9.38;53.47
48888;BME280;42598;53.802;-1.632;2023-02-12T07:27:30;102790.62;;;10.21;52.47
48888;BME280;42598;53.802;-1.632;2023-02-12T07:29:57;102794.50;;;10.03;51.94
48888;BME280;42598;53.802;-1.632;2023-02-12T07:32:24;102791.08;;;10.58;50.90
48888;BME280;42598;53.802;-1.632;2023-02-12T07:34:51;102787.65;;;9.91;51.97
48888;BME280;42598;53.802;-1.632;2023-02-12T07:37:19;102784.89;;;10.17;50.80
48888;BME280;42598;53.802;-1.632;2023-02-12T07:39:45;102785.41;;;10.13;50.29
48888;BME280;42598;53.802;-1.632;2023-02-12T07:42:12;102787.59;;;9.44;52.41
48888;BME280;42598;53.802;-1.632;2023-02-12T07:44:40;102788.36;;;9.69;51.42
48888;BME280;42598;53.802;-1.632;2023-02-12T07:47:07;102787.16;;;8.86;53.70
48888;BME280;42598;53.802;-1.632;2023-02-12T07:49:34;102789.62;;;9.41;53.93
48888;BME280;42598;53.802;-1.632;2023-02-12T07:52:00;102792.73;;;9.90;52.38
48888;BME280;42598;53.802;-1.632;2023-02-12T07:54:27;102795.19;;;9.94;52.72
48888;BME280;42598;53.802;-1.632;2023-02-12T07:56:54;102795.71;;;10.92;50.55
48888;BME280;42598;53.802;-1.632;2023-02-12T07:59:22;102800.41;;;11.16;50.79
48888;BME280;42598;53.802;-1.632;2023-02-12T08:01:55;102799.84;;;10.01;52.96
48888;BME280;42598;53.802;-1.632;2023-02-12T08:04:24;102801.77;;;9.04;55.42
48888;BME280;42598;53.802;-1.632;2023-02-12T08:06:53;102801.71;;;10.33;52.56
48888;BME280;42598;53.802;-1.632;2023-02-12T08:09:22;102800.83;;;9.83;53.11
48888;BME280;42598;53.802;-1.632;2023-02-12T08:11:50;102808.50;;;10.04;53.02
48888;BME280;42598;53.802;-1.632;2023-02-12T08:14:19;102808.77;;;10.13;52.80
48888;BME280;42598;53.802;-1.632;2023-02-12T08:16:47;102812.75;;;10.64;51.82
48888;BME280;42598;53.802;-1.632;2023-02-12T08:19:15;102813.25;;;8.36;55.67
48888;BME280;42598;53.802;-1.632;2023-02-12T08:21:42;102816.29;;;10.03;53.21
48888;BME280;42598;53.802;-1.632;2023-02-12T08:24:10;102810.14;;;9.91;52.90
48888;BME280;42598;53.802;-1.632;2023-02-12T08:26:38;102815.68;;;10.03;52.96
48888;BME280;42598;53.802;-1.632;2023-02-12T08:29:07;102813.32;;;10.45;51.77
48888;BME280;42598;53.802;-1.632;2023-02-12T08:31:38;102808.72;;;8.72;55.31
48888;BME280;42598;53.802;-1.632;2023-02-12T08:34:05;102809.55;;;10.42;52.24
48888;BME280;42598;53.802;-1.632;2023-02-12T08:36:37;102814.74;;;10.59;51.57
48888;BME280;42598;53.802;-1.632;2023-02-12T08:39:05;102811.38;;;10.16;53.14
48888;BME280;42598;53.802;-1.632;2023-02-12T08:41:33;102804.68;;;10.41;52.36
48888;BME280;42598;53.802;-1.632;2023-02-12T08:44:03;102806.40;;;10.90;50.99
48888;BME280;42598;53.802;-1.632;2023-02-12T08:46:33;102807.68;;;8.75;55.58
48888;BME280;42598;53.802;-1.632;2023-02-12T08:49:02;102807.01;;;9.89;53.45
48888;BME280;42598;53.802;-1.632;2023-02-12T08:51:33;102804.64;;;9.78;54.08
48888;BME280;42598;53.802;-1.632;2023-02-12T08:54:03;102801.62;;;10.55;52.87
48888;BME280;42598;53.802;-1.632;2023-02-12T08:56:32;102796.91;;;10.30;53.03
48888;BME280;42598;53.802;-1.632;2023-02-12T08:59:01;102800.66;;;10.88;52.49
48888;BME280;42598;53.802;-1.632;2023-02-12T09:01:30;102800.24;;;8.39;56.17
48888;BME280;42598;53.802;-1.632;2023-02-12T09:03:58;102797.03;;;9.69;54.40
48888;BME280;42598;53.802;-1.632;2023-02-12T09:06:26;102803.85;;;10.62;52.80
48888;BME280;42598;53.802;-1.632;2023-02-12T09:08:54;102804.49;;;10.26;53.06
48888;BME280;42598;53.802;-1.632;2023-02-12T09:11:24;102802.45;;;10.30;52.57
48888;BME280;42598;53.802;-1.632;2023-02-12T09:13:52;102806.25;;;9.91;53.14
48888;BME280;42598;53.802;-1.632;2023-02-12T09:16:19;102806.20;;;10.36;53.52
48888;BME280;42598;53.802;-1.632;2023-02-12T09:18:47;102804.73;;;10.52;52.55
48888;BME280;42598;53.802;-1.632;2023-02-12T09:21:15;102806.08;;;10.76;52.13
48888;BME280;42598;53.802;-1.632;2023-02-12T09:23:42;102808.04;;;10.94;51.31
48888;BME280;42598;53.802;-1.632;2023-02-12T09:26:11;102808.90;;;10.29;52.23
48888;BME280;42598;53.802;-1.632;2023-02-12T09:28:39;102809.35;;;8.14;56.09
48888;BME280;42598;53.802;-1.632;2023-02-12T09:31:08;102810.69;;;10.64;52.29
48888;BME280;42598;53.802;-1.632;2023-02-12T09:33:36;102808.18;;;11.23;51.02
48888;BME280;42598;53.802;-1.632;2023-02-12T09:36:04;102808.11;;;10.22;52.26
48888;BME280;42598;53.802;-1.632;2023-02-12T09:38:33;102800.03;;;10.99;50.53
48888;BME280;42598;53.802;-1.632;2023-02-12T09:41:56;102799.20;;;11.21;50.49
48888;BME280;42598;53.802;-1.632;2023-02-12T09:44:34;102799.70;;;10.91;50.06
48888;BME280;42598;53.802;-1.632;2023-02-12T09:47:08;102806.51;;;9.60;51.29
48888;BME280;42598;53.802;-1.632;2023-02-12T09:49:53;102805.11;;;10.45;50.42
48888;BME280;42598;53.802;-1.632;2023-02-12T09:52:25;102805.35;;;10.88;50.23
48888;BME280;42598;53.802;-1.632;2023-02-12T09:54:53;102803.12;;;10.52;49.35
48888;BME280;42598;53.802;-1.632;2023-02-12T09:57:25;102804.03;;;10.59;50.29
48888;BME280;42598;53.802;-1.632;2023-02-12T09:59:57;102795.37;;;11.10;49.40
48888;BME280;42598;53.802;-1.632;2023-02-12T10:02:24;102787.83;;;11.30;49.15
48888;BME280;42598;53.802;-1.632;2023-02-12T10:04:53;102790.43;;;11.16;48.51
48888;BME280;42598;53.802;-1.632;2023-02-12T10:07:32;102787.19;;;11.45;48.09
48888;BME280;42598;53.802;-1.632;2023-02-12T10:10:13;102787.32;;;10.76;49.29
48888;BME280;42598;53.802;-1.632;2023-02-12T10:12:52;102789.56;;;11.66;48.03
48888;BME280;42598;53.802;-1.632;2023-02-12T10:15:30;102793.17;;;11.33;48.62
48888;BME280;42598;53.802;-1.632;2023-02-12T10:18:07;102793.09;;;11.09;48.57
48888;BME280;42598;53.802;-1.632;2023-02-12T10:20:47;102797.49;;;8.08;55.07
48888;BME280;42598;53.802;-1.632;2023-02-12T10:23:31;102800.21;;;10.06;51.82
48888;BME280;42598;53.802;-1.632;2023-02-12T10:26:12;102799.43;;;9.89;51.58
48888;BME280;42598;53.802;-1.632;2023-02-12T10:28:44;102803.20;;;10.25;50.37
48888;BME280;42598;53.802;-1.632;2023-02-12T10:31:15;102806.91;;;10.16;51.91
48888;BME280;42598;53.802;-1.632;2023-02-12T10:33:48;102805.38;;;10.98;50.34
48888;BME280;42598;53.802;-1.632;2023-02-12T10:36:28;102806.93;;;10.84;50.40
48888;BME280;42598;53.802;-1.632;2023-02-12T10:39:00;102806.69;;;10.58;49.77
48888;BME280;42598;53.802;-1.632;2023-02-12T10:41:30;102808.09;;;10.27;50.90
48888;BME280;42598;53.802;-1.632;2023-02-12T10:43:58;102805.75;;;10.74;49.44
48888;BME280;42598;53.802;-1.632;2023-02-12T10:46:28;102805.65;;;9.17;51.72
48888;BME280;42598;53.802;-1.632;2023-02-12T10:48:59;102804.47;;;8.82;52.06
48888;BME280;42598;53.802;-1.632;2023-02-12T10:51:38;102802.87;;;9.13;50.77
48888;BME280;42598;53.802;-1.632;2023-02-12T10:54:46;102804.95;;;9.71;49.98
48888;BME280;42598;53.802;-1.632;2023-02-12T10:57:18;102809.59;;;10.16;48.87
48888;BME280;42598;53.802;-1.632;2023-02-12T10:59:48;102811.58;;;10.13;49.09
48888;BME280;42598;53.802;-1.632;2023-02-12T11:02:21;102813.35;;;9.75;48.77
48888;BME280;42598;53.802;-1.632;2023-02-12T11:04:50;102820.63;;;7.99;52.32
48888;BME280;42598;53.802;-1.632;2023-02-12T11:07:18;102827.25;;;8.57;51.04
48888;BME280;42598;53.802;-1.632;2023-02-12T11:09:47;102817.24;;;10.08;48.86
48888;BME280;42598;53.802;-1.632;2023-02-12T11:12:22;102818.09;;;9.13;51.08
48888;BME280;42598;53.802;-1.632;2023-02-12T11:14:54;102821.42;;;8.09;53.29
48888;BME280;42598;53.802;-1.632;2023-02-12T11:17:26;102824.40;;;7.65;52.93
48888;BME280;42598;53.802;-1.632;2023-02-12T11:20:18;102815.77;;;8.61;51.00
48888;BME280;42598;53.802;-1.632;2023-02-12T11:20:27;102813.85;;;8.69;50.83
48888;BME280;42598;53.802;-1.632;2023-02-12T11:22:57;102809.63;;;8.77;50.07
48888;BME280;42598;53.802;-1.632;2023-02-12T11:25:27;102803.13;;;8.30;50.31
48888;BME280;42598;53.802;-1.632;2023-02-12T11:28:16;102797.01;;;9.73;48.54
48888;BME280;42598;53.802;-1.632;2023-02-12T11:30:54;102794.19;;;9.45;48.91
48888;BME280;42598;53.802;-1.632;2023-02-12T11:33:26;102800.10;;;9.85;48.23
48888;BME280;42598;53.802;-1.632;2023-02-12T11:35:55;102797.36;;;9.29;48.25
48888;BME280;42598;53.802;-1.632;2023-02-12T11:38:27;102793.35;;;10.20;47.81
48888;BME280;42598;53.802;-1.632;2023-02-12T11:40:59;102792.87;;;9.66;48.73
48888;BME280;42598;53.802;-1.632;2023-02-12T11:43:27;102792.47;;;9.36;49.53
48888;BME280;42598;53.802;-1.632;2023-02-12T11:45:55;102797.48;;;9.06;49.91
48888;BME280;42598;53.802;-1.632;2023-02-12T11:48:28;102792.33;;;8.56;50.80
48888;BME280;42598;53.802;-1.632;2023-02-12T11:50:58;102791.59;;;9.47;49.95
48888;BME280;42598;53.802;-1.632;2023-02-12T11:53:30;102796.42;;;9.37;50.36
48888;BME280;42598;53.802;-1.632;2023-02-12T11:56:00;102790.08;;;8.47;51.20
48888;BME280;42598;53.802;-1.632;2023-02-12T11:58:28;102783.99;;;9.45;49.91
48888;BME280;42598;53.802;-1.632;2023-02-12T12:01:02;102783.52;;;9.57;49.68
48888;BME280;42598;53.802;-1.632;2023-02-12T12:03:38;102786.64;;;9.38;50.40
48888;BME280;42598;53.802;-1.632;2023-02-12T12:06:20;102789.82;;;8.43;51.86
48888;BME280;42598;53.802;-1.632;2023-02-12T12:08:53;102778.08;;;9.13;51.64
48888;BME280;42598;53.802;-1.632;2023-02-12T12:11:27;102772.57;;;8.89;51.82
48888;BME280;42598;53.802;-1.632;2023-02-12T12:14:01;102773.90;;;9.09;51.06
48888;BME280;42598;53.802;-1.632;2023-02-12T12:16:35;102768.51;;;9.34;50.86
48888;BME280;42598;53.802;-1.632;2023-02-12T12:19:08;102766.31;;;9.29;51.23
48888;BME280;42598;53.802;-1.632;2023-02-12T12:21:41;102767.61;;;9.50;50.32
48888;BME280;42598;53.802;-1.632;2023-02-12T12:24:16;102769.05;;;8.66;52.45
48888;BME280;42598;53.802;-1.632;2023-02-12T12:26:48;102763.68;;;9.30;51.36
48888;BME280;42598;53.802;-1.632;2023-02-12T12:29:20;102758.01;;;9.35;51.00
48888;BME280;42598;53.802;-1.632;2023-02-12T12:31:53;102761.60;;;10.23;49.53
48888;BME280;42598;53.802;-1.632;2023-02-12T12:34:24;102763.64;;;9.19;51.10
48888;BME280;42598;53.802;-1.632;2023-02-12T12:37:32;102763.85;;;8.88;51.61
48888;BME280;42598;53.802;-1.632;2023-02-12T12:40:15;102760.17;;;9.69;49.71
48888;BME280;42598;53.802;-1.632;2023-02-12T12:42:56;102762.81;;;8.92;51.40
48888;BME280;42598;53.802;-1.632;2023-02-12T12:48:02;102753.72;;;9.96;51.18
48888;BME280;42598;53.802;-1.632;2023-02-12T12:50:45;102749.82;;;9.20;50.68
48888;BME280;42598;53.802;-1.632;2023-02-12T12:53:22;102741.04;;;10.05;48.46
48888;BME280;42598;53.802;-1.632;2023-02-12T12:56:06;102737.22;;;10.29;47.99
48888;BME280;42598;53.802;-1.632;2023-02-12T12:58:45;102734.47;;;10.39;48.33
48888;BME280;42598;53.802;-1.632;2023-02-12T13:01:43;102730.55;;;8.85;50.52
48888;BME280;42598;53.802;-1.632;2023-02-12T13:04:34;102728.33;;;8.45;51.16
48888;BME280;42598;53.802;-1.632;2023-02-12T13:07:14;102722.17;;;9.49;49.15